Time;durP1;ratioP1;P1;durP2;ratioP2;P2;SDS_P1;SDS_P2;PMS_P1;PMS_P2;Temp;Humidity;BMP_temperature;BMP_pressure;BME280_temperature;BME280_humidity;BME280_pressure;Samples;Min_cycle;Max_cycle;Signal;HPM_P1;HPM_P2
2024/01/28 00:00:14;;;;;;;29.92;5.53;;;1.10;99.90;;;;;;5042725;28;20044;-60
2024/01/28 00:02:40;;;;;;;22.30;5.63;;;1.10;99.90;;;;;;5038952;28;20120;-60
2024/01/28 00:05:06;;;;;;;28.75;5.75;;;1.10;99.90;;;;;;5041058;28;20547;-60
2024/01/28 00:07:33;;;;;;;23.27;6.22;;;1.10;99.90;;;;;;5034515;28;20516;-60
2024/01/28 00:09:58;;;;;;;18.90;5.65;;;1.10;99.90;;;;;;5041815;28;20080;-60
2024/01/28 00:12:24;;;;;;;19.58;5.10;;;1.10;99.90;;;;;;5040831;28;20471;-60
2024/01/28 00:14:56;;;;;;;18.23;5.38;;;1.10;99.90;;;;;;5042224;28;20102;-60
2024/01/28 00:17:24;;;;;;;21.88;5.88;;;1.10;99.90;;;;;;5040945;28;20110;-60
2024/01/28 00:19:50;;;;;;;13.68;5.60;;;1.00;99.90;;;;;;5039796;28;20049;-60
2024/01/28 00:22:16;;;;;;;16.23;5.05;;;1.00;99.90;;;;;;5042912;28;20130;-60
2024/01/28 00:24:42;;;;;;;18.38;5.80;;;0.90;99.90;;;;;;5038588;28;20408;-60
2024/01/28 00:27:08;;;;;;;24.67;5.60;;;0.80;99.90;;;;;;5040602;28;20060;-60
2024/01/28 00:29:33;;;;;;;26.20;6.10;;;0.80;99.90;;;;;;5040486;28;20488;-60
2024/01/28 00:31:59;;;;;;;31.52;6.95;;;0.80;99.90;;;;;;5042068;28;20425;-60
2024/01/28 00:34:26;;;;;;;28.98;6.40;;;0.80;99.90;;;;;;5041451;28;20207;-60
2024/01/28 00:36:52;;;;;;;27.48;6.63;;;0.80;99.90;;;;;;5022901;28;20049;-60
2024/01/28 00:39:18;;;;;;;20.95;5.90;;;0.80;99.90;;;;;;5042660;28;20049;-60
2024/01/28 00:41:43;;;;;;;21.00;6.45;;;0.80;99.90;;;;;;5038311;28;20053;-60
2024/01/28 00:44:09;;;;;;;34.10;7.32;;;0.70;99.90;;;;;;5042573;28;20396;-60
2024/01/28 00:46:36;;;;;;;24.10;6.93;;;0.80;99.90;;;;;;5038276;28;20044;-60
2024/01/28 00:49:05;;;;;;;;;;;0.70;99.90;;;;;;5041204;28;20053;-60
2024/01/28 00:51:32;;;;;;;20.95;6.00;;;0.70;99.90;;;;;;5036966;28;19996;-60
2024/01/28 00:53:59;;;;;;;29.25;6.10;;;0.60;99.90;;;;;;5041701;28;20463;-60
2024/01/28 00:56:25;;;;;;;17.48;5.90;;;0.70;99.90;;;;;;5042372;28;20087;-60
2024/01/28 00:58:51;;;;;;;19.38;5.68;;;0.70;99.90;;;;;;4991906;28;20071;-60
2024/01/28 01:01:18;;;;;;;21.77;5.80;;;0.70;99.90;;;;;;5035362;28;20052;-60
2024/01/28 01:03:44;;;;;;;29.13;6.00;;;0.80;99.90;;;;;;5038197;28;20134;-60
2024/01/28 01:06:09;;;;;;;13.10;5.68;;;0.60;99.90;;;;;;5042596;28;20542;-60
2024/01/28 01:08:35;;;;;;;21.90;6.45;;;0.70;99.90;;;;;;5039996;28;20041;-62
2024/01/28 01:11:03;;;;;;;25.65;6.85;;;0.60;99.90;;;;;;5020962;28;20087;-62
2024/01/28 01:13:34;;;;;;;23.23;6.22;;;0.60;99.90;;;;;;5041925;28;20053;-62
2024/01/28 01:16:00;;;;;;;23.85;5.70;;;0.60;99.90;;;;;;5039307;28;20406;-62
2024/01/28 01:18:26;;;;;;;28.35;7.20;;;0.70;99.90;;;;;;5031819;28;20033;-63
2024/01/28 01:20:52;;;;;;;22.73;6.10;;;0.60;99.90;;;;;;5031911;28;20913;-62
2024/01/28 01:23:18;;;;;;;18.85;5.80;;;0.70;99.90;;;;;;5044327;28;20151;-62
2024/01/28 01:25:44;;;;;;;22.63;6.10;;;0.70;99.90;;;;;;5044055;28;20518;-62
2024/01/28 01:28:10;;;;;;;23.90;5.57;;;0.70;99.90;;;;;;5044348;28;20041;-63
2024/01/28 01:30:36;;;;;;;19.50;6.20;;;0.70;99.90;;;;;;5045620;28;20676;-62
2024/01/28 01:33:04;;;;;;;19.98;5.68;;;0.60;99.90;;;;;;5043168;28;20053;-62
2024/01/28 01:35:30;;;;;;;23.00;6.18;;;0.60;99.90;;;;;;5039273;28;20048;-62
2024/01/28 01:37:56;;;;;;;10.77;4.93;;;0.70;99.90;;;;;;5038357;28;20499;-62
2024/01/28 01:40:22;;;;;;;26.52;6.28;;;0.70;99.90;;;;;;5045226;28;20043;-62
2024/01/28 01:42:48;;;;;;;21.85;5.70;;;0.60;99.90;;;;;;5041742;28;20419;-62
2024/01/28 01:45:15;;;;;;;16.30;5.82;;;0.60;99.90;;;;;;5046082;28;20493;-63
2024/01/28 01:47:41;;;;;;;26.88;5.85;;;0.70;99.90;;;;;;5044062;28;20143;-62
2024/01/28 01:50:10;;;;;;;18.13;5.60;;;0.60;99.90;;;;;;5045348;28;20303;-62
2024/01/28 01:52:42;;;;;;;14.35;5.18;;;0.80;99.90;;;;;;5043544;28;20532;-62
2024/01/28 01:55:09;;;;;;;23.48;5.55;;;0.90;99.90;;;;;;5038311;28;20051;-63
2024/01/28 01:57:39;;;;;;;19.08;5.35;;;1.00;99.90;;;;;;5043686;28;20044;-62
2024/01/28 02:00:05;;;;;;;16.48;4.55;;;1.00;99.90;;;;;;5041989;28;20059;-63
2024/01/28 02:02:32;;;;;;;15.65;5.65;;;1.00;99.90;;;;;;5043744;28;20581;-62
2024/01/28 02:04:59;;;;;;;18.75;5.40;;;1.00;99.90;;;;;;5023306;28;20052;-62
2024/01/28 02:07:25;;;;;;;28.25;6.85;;;0.90;99.90;;;;;;5040182;28;20056;-63
2024/01/28 02:09:51;;;;;;;23.52;5.85;;;1.00;99.90;;;;;;5012837;28;20900;-62
2024/01/28 02:12:17;;;;;;;21.52;5.95;;;0.90;99.90;;;;;;5041892;28;20059;-62
2024/01/28 02:14:43;;;;;;;22.95;7.50;;;0.90;99.90;;;;;;5043555;28;20048;-62
2024/01/28 02:17:09;;;;;;;22.23;5.95;;;0.80;99.90;;;;;;5039863;28;20391;-62
2024/01/28 02:19:34;;;;;;;17.35;5.38;;;0.90;99.90;;;;;;5043098;28;20041;-63
2024/01/28 02:22:00;;;;;;;16.55;4.97;;;0.80;99.90;;;;;;5040172;28;20430;-62
2024/01/28 02:24:29;;;;;;;17.45;5.85;;;0.70;99.90;;;;;;5043221;28;20057;-62
2024/01/28 02:26:54;;;;;;;22.05;5.68;;;0.70;99.90;;;;;;5041976;28;20496;-62
2024/01/28 02:29:20;;;;;;;22.85;5.95;;;0.80;99.90;;;;;;5041637;28;20311;-62
2024/01/28 02:31:46;;;;;;;21.77;6.13;;;0.60;99.90;;;;;;5042594;28;20147;-62
2024/01/28 02:34:12;;;;;;;20.55;5.05;;;0.70;99.90;;;;;;5040285;28;20041;-62
2024/01/28 02:36:38;;;;;;;15.65;5.55;;;0.70;99.90;;;;;;5044294;28;20098;-63
2024/01/28 02:39:04;;;;;;;21.17;5.82;;;0.70;99.90;;;;;;5040398;28;20056;-63
2024/01/28 02:41:30;;;;;;;29.50;6.00;;;0.60;99.90;;;;;;5042861;28;20044;-62
2024/01/28 02:43:56;;;;;;;25.52;5.97;;;0.60;99.90;;;;;;5040441;28;20047;-63
2024/01/28 02:46:24;;;;;;;23.50;5.25;;;0.60;99.90;;;;;;5043257;28;20518;-62
2024/01/28 02:48:52;;;;;;;26.23;5.90;;;0.60;99.90;;;;;;5039905;28;20080;-62
2024/01/28 02:51:17;;;;;;;24.33;5.13;;;0.70;99.90;;;;;;5042201;28;20083;-62
2024/01/28 02:53:43;;;;;;;20.80;6.25;;;0.60;99.90;;;;;;5041727;28;20068;-62
2024/01/28 02:56:09;;;;;;;19.00;5.82;;;0.70;99.90;;;;;;5040952;28;20131;-60
2024/01/28 02:58:35;;;;;;;18.15;5.47;;;0.70;99.90;;;;;;5042332;28;20141;-60
2024/01/28 03:01:01;;;;;;;25.17;5.95;;;0.70;99.90;;;;;;5042442;28;20080;-60
2024/01/28 03:03:27;;;;;;;20.48;5.65;;;0.80;99.90;;;;;;5043005;28;20053;-60
2024/01/28 03:05:53;;;;;;;18.48;5.30;;;0.80;99.90;;;;;;5041384;28;20055;-60
2024/01/28 03:08:19;;;;;;;25.80;6.32;;;0.80;99.90;;;;;;5041604;28;20048;-60
2024/01/28 03:10:45;;;;;;;22.05;6.30;;;0.90;99.90;;;;;;5026620;28;20204;-60
2024/01/28 03:13:11;;;;;;;21.75;6.30;;;1.00;99.90;;;;;;5036516;28;20459;-60
2024/01/28 03:15:36;;;;;;;21.75;6.25;;;1.00;99.90;;;;;;5043388;28;20056;-60
2024/01/28 03:18:02;;;;;;;22.65;5.68;;;1.00;99.90;;;;;;5041314;28;20574;-60
2024/01/28 03:20:28;;;;;;;19.88;5.75;;;1.10;99.90;;;;;;5039225;28;20106;-60
2024/01/28 03:22:55;;;;;;;24.63;6.13;;;1.10;99.90;;;;;;5038965;28;20372;-60
2024/01/28 03:25:20;;;;;;;12.60;5.43;;;1.20;99.90;;;;;;5036901;28;20500;-60
2024/01/28 03:27:46;;;;;;;26.25;6.00;;;1.20;99.90;;;;;;5039172;28;20123;-60
2024/01/28 03:30:14;;;;;;;15.40;5.45;;;1.20;99.90;;;;;;5041717;28;20353;-60
2024/01/28 03:32:40;;;;;;;17.70;5.25;;;1.30;99.90;;;;;;5040768;28;20136;-60
2024/01/28 03:35:06;;;;;;;15.25;4.90;;;1.20;99.90;;;;;;5041290;28;20768;-60
2024/01/28 03:37:31;;;;;;;30.75;5.70;;;1.30;99.90;;;;;;5042958;28;20040;-60
2024/01/28 03:39:57;;;;;;;18.80;5.40;;;1.30;99.90;;;;;;5003480;28;20049;-60
2024/01/28 03:42:23;;;;;;;19.10;4.93;;;1.30;99.90;;;;;;5033200;28;20047;-60
2024/01/28 03:44:49;;;;;;;22.60;6.30;;;1.30;99.90;;;;;;5041734;28;20106;-60
2024/01/28 03:47:15;;;;;;;18.17;6.07;;;1.30;99.90;;;;;;5041122;28;20704;-60
2024/01/28 03:49:42;;;;;;;15.60;5.57;;;1.30;99.90;;;;;;5040096;28;20036;-62
2024/01/28 03:52:08;;;;;;;29.30;6.00;;;1.30;99.90;;;;;;5039419;28;20556;-62
2024/01/28 03:54:33;;;;;;;22.75;6.65;;;1.40;99.90;;;;;;5042139;28;20143;-62
2024/01/28 03:57:00;;;;;;;20.75;6.57;;;1.30;99.90;;;;;;5040763;28;20037;-62
2024/01/28 03:59:27;;;;;;;25.33;6.28;;;1.40;99.90;;;;;;5040982;28;20056;-63
2024/01/28 04:01:53;;;;;;;20.48;6.63;;;1.30;99.90;;;;;;5042036;28;20117;-62
2024/01/28 04:04:19;;;;;;;18.85;6.10;;;1.30;99.90;;;;;;5040143;28;20455;-62
2024/01/28 04:06:44;;;;;;;28.15;6.40;;;1.30;99.90;;;;;;5042758;28;20052;-62
2024/01/28 04:09:11;;;;;;;29.08;6.35;;;1.30;99.90;;;;;;5037854;28;20042;-62
2024/01/28 04:11:37;;;;;;;17.27;6.10;;;1.30;99.90;;;;;;5042669;28;20053;-62
2024/01/28 04:14:03;;;;;;;19.23;6.32;;;1.20;99.90;;;;;;5037639;28;20161;-62
2024/01/28 04:16:28;;;;;;;23.60;6.07;;;1.20;99.90;;;;;;5042732;28;20043;-62
2024/01/28 04:18:56;;;;;;;16.98;5.85;;;1.20;99.90;;;;;;5039343;28;20123;-62
2024/01/28 04:21:23;;;;;;;22.48;5.80;;;1.20;99.90;;;;;;5041359;28;20399;-62
2024/01/28 04:23:51;;;;;;;24.75;6.28;;;1.20;99.90;;;;;;5040148;28;20533;-62
2024/01/28 04:26:18;;;;;;;24.88;5.60;;;1.20;99.90;;;;;;5038661;28;20137;-62
2024/01/28 04:28:45;;;;;;;20.33;5.68;;;1.20;99.90;;;;;;5040890;28;20033;-62
2024/01/28 04:31:13;;;;;;;24.63;6.53;;;1.20;99.90;;;;;;5040451;28;20056;-62
2024/01/28 04:33:39;;;;;;;30.38;6.80;;;1.20;99.90;;;;;;5040439;28;20053;-62
2024/01/28 04:36:05;;;;;;;23.27;5.93;;;1.20;99.90;;;;;;5040508;28;20045;-62
2024/01/28 04:38:31;;;;;;;17.38;6.20;;;1.20;99.90;;;;;;5041070;28;20045;-62
2024/01/28 04:40:57;;;;;;;21.80;5.88;;;1.20;99.90;;;;;;5041971;28;20080;-62
2024/01/28 04:43:23;;;;;;;24.75;5.95;;;1.20;99.90;;;;;;5039140;28;20080;-62
2024/01/28 04:45:48;;;;;;;28.67;6.35;;;1.20;99.90;;;;;;5042148;28;20044;-62
2024/01/28 04:48:14;;;;;;;22.20;5.95;;;1.20;99.90;;;;;;5039011;28;20044;-62
2024/01/28 04:50:41;;;;;;;22.13;6.00;;;1.20;99.90;;;;;;5024934;28;20514;-62
2024/01/28 04:53:07;;;;;;;24.92;5.75;;;1.20;99.90;;;;;;5039656;28;20049;-62
2024/01/28 04:55:34;;;;;;;15.45;6.13;;;1.20;99.90;;;;;;5041897;28;20099;-62
2024/01/28 04:58:00;;;;;;;18.83;6.30;;;1.10;99.90;;;;;;5044197;28;20095;-62
2024/01/28 05:00:25;;;;;;;23.23;5.78;;;1.20;99.90;;;;;;5035232;28;20431;-62
2024/01/28 05:02:55;;;;;;;13.98;5.30;;;1.10;99.90;;;;;;5044447;28;20154;-62
2024/01/28 05:05:26;;;;;;;18.90;5.93;;;1.10;99.90;;;;;;5041346;28;20091;-62
2024/01/28 05:07:52;;;;;;;20.88;5.65;;;1.10;99.90;;;;;;5037728;28;20045;-62
2024/01/28 05:10:19;;;;;;;18.50;6.55;;;1.10;99.90;;;;;;5031203;28;20041;-62
2024/01/28 05:12:45;;;;;;;21.98;6.32;;;1.10;99.90;;;;;;5046288;28;20041;-62
2024/01/28 05:15:16;;;;;;;23.48;6.03;;;1.10;99.90;;;;;;5043482;28;20504;-63
2024/01/28 05:17:44;;;;;;;19.20;5.80;;;1.00;99.90;;;;;;5045246;28;20041;-62
2024/01/28 05:20:11;;;;;;;23.88;5.88;;;1.00;99.90;;;;;;5043437;28;20053;-62
2024/01/28 05:22:37;;;;;;;22.50;5.93;;;1.00;99.90;;;;;;5043613;28;20072;-62
2024/01/28 05:25:04;;;;;;;17.00;5.50;;;0.90;99.90;;;;;;5041508;28;20506;-62
2024/01/28 05:27:30;;;;;;;20.92;5.88;;;0.80;99.90;;;;;;5043591;28;20411;-62
2024/01/28 05:29:58;;;;;;;18.73;5.30;;;0.80;99.90;;;;;;5036534;28;20045;-62
2024/01/28 05:32:25;;;;;;;22.13;5.45;;;0.70;99.90;;;;;;5044182;28;20549;-62
2024/01/28 05:34:51;;;;;;;17.10;5.85;;;0.60;99.90;;;;;;5044333;28;20083;-62
2024/01/28 05:37:17;;;;;;;20.60;5.60;;;0.70;99.90;;;;;;5045126;28;20165;-62
2024/01/28 05:39:44;;;;;;;20.25;5.95;;;0.60;99.90;;;;;;5042711;28;20468;-62
2024/01/28 05:42:09;;;;;;;20.73;5.25;;;0.60;99.90;;;;;;5045712;28;20045;-62
2024/01/28 05:44:35;;;;;;;15.55;4.75;;;0.60;99.90;;;;;;5041251;28;20041;-62
2024/01/28 05:47:01;;;;;;;25.17;5.10;;;0.60;99.90;;;;;;5044995;28;20045;-62
2024/01/28 05:49:28;;;;;;;15.40;5.30;;;0.70;99.90;;;;;;5041273;28;20511;-62
2024/01/28 05:51:54;;;;;;;17.77;5.90;;;0.80;99.90;;;;;;5041509;28;20423;-62
2024/01/28 05:54:21;;;;;;;18.75;6.10;;;0.80;99.90;;;;;;5042728;28;20053;-62
2024/01/28 05:56:51;;;;;;;23.27;5.95;;;0.70;99.90;;;;;;5043898;28;20068;-62
2024/01/28 05:59:16;;;;;;;24.75;6.05;;;0.70;99.90;;;;;;5043592;28;20524;-62
2024/01/28 06:01:42;;;;;;;15.25;5.13;;;0.70;99.90;;;;;;5043308;28;20079;-62
2024/01/28 06:04:09;;;;;;;18.40;6.10;;;0.70;99.90;;;;;;5044532;28;20045;-62
2024/01/28 06:06:35;;;;;;;24.70;6.00;;;0.60;99.90;;;;;;5056824;28;20064;-63
2024/01/28 06:09:01;;;;;;;17.65;5.53;;;0.70;99.90;;;;;;5041845;28;20044;-62
2024/01/28 06:11:27;;;;;;;21.13;5.95;;;0.70;99.90;;;;;;5031663;28;20257;-62
2024/01/28 06:13:53;;;;;;;21.30;6.95;;;0.70;99.90;;;;;;5024905;28;21566;-62
2024/01/28 06:16:19;;;;;;;26.38;5.93;;;0.60;99.90;;;;;;5043034;28;20033;-62
2024/01/28 06:18:45;;;;;;;27.73;5.70;;;0.60;99.90;;;;;;5040664;28;20063;-62
2024/01/28 06:21:11;;;;;;;21.13;6.05;;;0.50;99.90;;;;;;5024826;28;20385;-62
2024/01/28 06:23:37;;;;;;;14.38;5.70;;;0.40;99.90;;;;;;5042367;28;20530;-62
2024/01/28 06:26:04;;;;;;;16.40;5.78;;;0.40;99.90;;;;;;5041655;28;20107;-62
2024/01/28 06:28:30;;;;;;;22.55;6.22;;;0.40;99.90;;;;;;5042583;28;20047;-62
2024/01/28 06:30:55;;;;;;;25.20;5.78;;;0.30;99.90;;;;;;5041662;28;20044;-62
2024/01/28 06:33:21;;;;;;;20.10;5.70;;;0.20;99.90;;;;;;5044192;28;20041;-62
2024/01/28 06:35:47;;;;;;;23.60;5.50;;;0.20;99.90;;;;;;5042053;28;20084;-62
2024/01/28 06:38:13;;;;;;;23.25;6.28;;;0.20;99.90;;;;;;5044129;28;20085;-62
2024/01/28 06:40:39;;;;;;;17.55;5.63;;;0.20;99.90;;;;;;5041280;28;20048;-62
2024/01/28 06:43:04;;;;;;;18.83;5.72;;;0.10;99.90;;;;;;5044623;28;20045;-62
2024/01/28 06:45:30;;;;;;;20.65;5.10;;;0.20;99.90;;;;;;5040143;28;20120;-62
2024/01/28 06:47:56;;;;;;;20.92;5.85;;;0.10;99.90;;;;;;5044269;28;20040;-62
2024/01/28 06:50:22;;;;;;;20.48;5.72;;;0.10;99.90;;;;;;5042610;28;20044;-63
2024/01/28 06:52:48;;;;;;;11.20;5.22;;;0.10;99.90;;;;;;5042994;28;20360;-62
2024/01/28 06:55:14;;;;;;;11.98;5.68;;;0.10;99.90;;;;;;5025403;28;20122;-63
2024/01/28 06:57:40;;;;;;;13.27;5.45;;;0.00;99.90;;;;;;5041876;28;20085;-62
2024/01/28 07:00:10;;;;;;;14.93;5.50;;;0.00;99.90;;;;;;5041712;28;20084;-62
2024/01/28 07:02:39;;;;;;;17.92;6.55;;;0.10;99.90;;;;;;5042104;28;20049;-62
2024/01/28 07:05:05;;;;;;;19.60;5.80;;;0.10;99.90;;;;;;5043772;28;20322;-62
2024/01/28 07:07:31;;;;;;;30.50;5.80;;;0.00;99.90;;;;;;5041845;28;20037;-62
2024/01/28 07:09:57;;;;;;;21.73;5.68;;;0.00;99.90;;;;;;5035054;28;20073;-62
2024/01/28 07:12:24;;;;;;;14.43;5.40;;;0.10;99.90;;;;;;5037335;28;20044;-62
2024/01/28 07:14:50;;;;;;;23.80;6.22;;;0.10;99.90;;;;;;5041522;28;20049;-62
2024/01/28 07:17:15;;;;;;;17.67;5.53;;;0.00;99.90;;;;;;5044081;28;20421;-62
2024/01/28 07:19:41;;;;;;;17.70;5.00;;;0.00;99.90;;;;;;5035948;28;20048;-62
2024/01/28 07:22:08;;;;;;;10.20;4.82;;;-0.10;99.90;;;;;;5038904;28;20110;-62
2024/01/28 07:24:34;;;;;;;18.15;5.57;;;-0.10;99.90;;;;;;5039667;28;20045;-62
2024/01/28 07:26:59;;;;;;;15.50;5.32;;;-0.10;99.90;;;;;;5043055;28;20562;-62
2024/01/28 07:29:26;;;;;;;18.88;4.93;;;-0.10;99.90;;;;;;5042777;28;20119;-62
2024/01/28 07:31:52;;;;;;;13.27;4.97;;;-0.10;99.90;;;;;;5035718;28;20489;-62
2024/01/28 07:34:20;;;;;;;19.23;5.18;;;0.00;99.90;;;;;;5043474;28;20049;-62
2024/01/28 07:36:47;;;;;;;17.00;6.75;;;-0.10;99.90;;;;;;5040469;28;20521;-61
2024/01/28 07:39:14;;;;;;;17.05;4.88;;;-0.10;99.90;;;;;;5042012;28;20055;-62
2024/01/28 07:41:41;;;;;;;17.20;5.30;;;-0.10;99.90;;;;;;5040156;28;20044;-62
2024/01/28 07:44:07;;;;;;;18.05;5.22;;;-0.10;99.90;;;;;;5057858;28;20048;-62
2024/01/28 07:46:33;;;;;;;12.45;4.72;;;-0.10;99.90;;;;;;5040072;28;20063;-62
2024/01/28 07:48:59;;;;;;;17.90;5.82;;;0.00;99.90;;;;;;5042331;28;20083;-62
2024/01/28 07:51:25;;;;;;;15.52;4.78;;;0.10;99.90;;;;;;5040054;28;20080;-62
2024/01/28 07:53:51;;;;;;;16.42;4.85;;;0.10;99.90;;;;;;5040541;28;20507;-62
2024/01/28 07:56:16;;;;;;;22.02;4.80;;;0.10;99.90;;;;;;5041034;28;20033;-62
2024/01/28 07:58:42;;;;;;;13.88;5.18;;;0.10;99.90;;;;;;5038776;28;20046;-62
2024/01/28 08:01:08;;;;;;;15.10;5.00;;;0.10;99.90;;;;;;5034464;28;20083;-62
2024/01/28 08:03:35;;;;;;;17.58;5.30;;;0.30;99.90;;;;;;5023293;28;20045;-62
2024/01/28 08:06:01;;;;;;;19.40;5.03;;;0.30;99.90;;;;;;5041054;28;20084;-62
2024/01/28 08:08:27;;;;;;;26.23;5.60;;;0.40;99.90;;;;;;5057909;28;20091;-62
2024/01/28 08:10:53;;;;;;;9.70;4.38;;;0.50;99.90;;;;;;5035420;28;20544;-62
2024/01/28 08:13:19;;;;;;;16.40;5.45;;;0.60;99.90;;;;;;5042771;28;20114;-62
2024/01/28 08:15:45;;;;;;;12.57;4.40;;;0.60;99.90;;;;;;5035234;28;20049;-62
2024/01/28 08:18:12;;;;;;;16.23;4.95;;;0.60;99.90;;;;;;5035872;28;20048;-62
2024/01/28 08:20:38;;;;;;;10.25;4.50;;;0.60;99.90;;;;;;5039635;28;20048;-62
2024/01/28 08:23:04;;;;;;;13.15;4.70;;;0.60;99.90;;;;;;5034600;28;20057;-62
2024/01/28 08:25:31;;;;;;;14.70;4.72;;;0.60;99.90;;;;;;5039732;28;20040;-62
2024/01/28 08:27:56;;;;;;;16.95;5.90;;;0.60;99.90;;;;;;5037748;28;20080;-62
2024/01/28 08:30:23;;;;;;;18.67;5.03;;;0.70;99.90;;;;;;5043110;28;20142;-62
2024/01/28 08:32:50;;;;;;;16.40;5.18;;;0.80;99.90;;;;;;5036569;28;20697;-62
2024/01/28 08:35:17;;;;;;;17.33;4.20;;;0.80;99.90;;;;;;5040980;28;20045;-62
2024/01/28 08:37:45;;;;;;;21.25;4.90;;;0.90;99.90;;;;;;5033284;28;20033;-62
2024/01/28 08:40:10;;;;;;;14.15;4.55;;;1.00;99.90;;;;;;5038195;28;20156;-62
2024/01/28 08:42:36;;;;;;;15.43;4.95;;;1.00;99.90;;;;;;5037834;28;20079;-62
2024/01/28 08:45:02;;;;;;;19.60;5.82;;;1.10;99.90;;;;;;5038505;28;20060;-63
2024/01/28 08:47:28;;;;;;;29.17;5.18;;;1.10;99.90;;;;;;5034007;28;20144;-62
2024/01/28 08:49:54;;;;;;;21.17;4.97;;;1.10;99.90;;;;;;5030221;28;20484;-62
2024/01/28 08:52:21;;;;;;;19.30;4.65;;;1.00;99.90;;;;;;5042200;28;20052;-62
2024/01/28 08:54:47;;;;;;;13.40;5.18;;;1.10;99.90;;;;;;5040116;28;20052;-62
2024/01/28 08:57:14;;;;;;;16.75;5.22;;;1.00;99.90;;;;;;5040912;28;20037;-62
2024/01/28 08:59:40;;;;;;;18.60;5.18;;;1.00;99.90;;;;;;5038835;28;20060;-62
2024/01/28 09:02:06;;;;;;;11.63;4.60;;;1.00;99.90;;;;;;5040253;28;20037;-62
2024/01/28 09:04:31;;;;;;;17.65;5.10;;;1.10;99.90;;;;;;5056895;28;20656;-63
2024/01/28 09:06:57;;;;;;;20.58;4.95;;;1.20;99.90;;;;;;5036965;28;20139;-62
2024/01/28 09:09:30;;;;;;;12.75;4.63;;;1.30;99.90;;;;;;5037839;28;20345;-62
2024/01/28 09:11:56;;;;;;;22.90;4.63;;;1.40;99.90;;;;;;5032006;28;20495;-62
2024/01/28 09:14:22;;;;;;;15.30;4.63;;;1.50;99.90;;;;;;5040926;28;20049;-62
2024/01/28 09:16:47;;;;;;;16.10;5.45;;;1.60;99.90;;;;;;5037417;28;20106;-62
2024/01/28 09:19:13;;;;;;;10.02;4.10;;;1.70;99.90;;;;;;5038509;28;20076;-62
2024/01/28 09:21:39;;;;;;;13.50;4.30;;;1.80;99.90;;;;;;5038941;28;20041;-62
2024/01/28 09:24:05;;;;;;;16.40;4.03;;;1.80;99.90;;;;;;5039342;28;20128;-62
2024/01/28 09:26:31;;;;;;;16.27;4.68;;;1.90;99.90;;;;;;5034631;28;20389;-62
2024/01/28 09:28:58;;;;;;;17.88;5.15;;;2.00;99.90;;;;;;5029339;28;20041;-62
2024/01/28 09:31:24;;;;;;;6.18;3.60;;;2.00;99.90;;;;;;5038373;28;20495;-63
2024/01/28 09:33:50;;;;;;;14.77;4.70;;;2.10;99.90;;;;;;5037765;28;20095;-62
2024/01/28 09:36:16;;;;;;;13.88;4.30;;;2.20;99.90;;;;;;5038320;28;20041;-62
2024/01/28 09:38:42;;;;;;;14.48;4.20;;;2.30;99.90;;;;;;5035802;28;20114;-62
2024/01/28 09:41:36;;;;;;;7.93;3.42;;;2.30;99.90;;;;;;5039005;28;20052;-63
2024/01/28 09:44:08;;;;;;;12.35;3.03;;;2.40;99.90;;;;;;5034367;28;20287;-62
2024/01/28 09:46:34;;;;;;;10.20;3.47;;;2.50;99.90;;;;;;5040478;28;20190;-62
2024/01/28 09:49:01;;;;;;;6.95;3.85;;;2.50;99.90;;;;;;5042796;28;20125;-62
2024/01/28 09:51:27;;;;;;;23.55;4.70;;;2.70;99.90;;;;;;5038654;28;20061;-62
2024/01/28 09:53:53;;;;;;;12.45;3.70;;;2.80;99.90;;;;;;5035057;28;20045;-62
2024/01/28 09:56:19;;;;;;;8.50;3.13;;;2.90;99.90;;;;;;5043168;28;20578;-62
2024/01/28 09:58:47;;;;;;;9.10;3.33;;;3.00;99.90;;;;;;5042931;28;20056;-62
2024/01/28 10:01:13;;;;;;;12.70;2.67;;;3.10;99.90;;;;;;5027609;28;20041;-62
2024/01/28 10:03:40;;;;;;;9.13;3.60;;;3.30;99.90;;;;;;5042364;28;20250;-62
2024/01/28 10:06:05;;;;;;;8.57;2.72;;;3.50;99.90;;;;;;5040875;28;20049;-62
2024/01/28 10:08:32;;;;;;;13.48;3.70;;;3.60;99.90;;;;;;5043543;28;20041;-62
2024/01/28 10:11:01;;;;;;;9.15;2.95;;;3.50;99.90;;;;;;5013322;28;20080;-62
2024/01/28 10:13:28;;;;;;;7.10;3.05;;;3.50;99.90;;;;;;5034492;28;20053;-61
2024/01/28 10:15:55;;;;;;;8.55;3.20;;;3.50;99.90;;;;;;5042218;28;20129;-62
2024/01/28 10:18:23;;;;;;;16.10;3.45;;;3.40;99.90;;;;;;5044688;28;20049;-61
2024/01/28 10:20:49;;;;;;;16.05;3.67;;;3.40;99.90;;;;;;5042926;28;20045;-62
2024/01/28 10:23:17;;;;;;;8.65;3.20;;;3.50;99.90;;;;;;5044588;28;20120;-62
2024/01/28 10:25:45;;;;;;;13.57;4.55;;;3.50;99.90;;;;;;5056245;28;20045;-62
2024/01/28 10:28:11;;;;;;;9.20;3.03;;;3.50;99.90;;;;;;5044463;28;20465;-62
2024/01/28 10:30:37;;;;;;;10.45;3.28;;;3.50;99.90;;;;;;5043116;28;20045;-61
2024/01/28 10:33:03;;;;;;;9.63;3.10;;;3.60;99.90;;;;;;5042668;28;20526;-61
2024/01/28 10:35:29;;;;;;;9.35;3.20;;;3.60;99.90;;;;;;5043071;28;20041;-61
2024/01/28 10:37:56;;;;;;;6.38;3.20;;;3.70;99.90;;;;;;5042903;28;20403;-62
2024/01/28 10:40:27;;;;;;;12.88;3.10;;;3.70;99.90;;;;;;5044223;28;20095;-61
2024/01/28 10:42:59;;;;;;;12.98;2.70;;;3.80;99.90;;;;;;5034087;28;20447;-61
2024/01/28 10:45:27;;;;;;;7.53;3.00;;;3.80;99.90;;;;;;5041136;28;20491;-61
2024/01/28 10:47:55;;;;;;;11.02;2.75;;;3.80;99.90;;;;;;5035452;28;20084;-61
2024/01/28 10:50:22;;;;;;;14.23;2.83;;;3.90;99.90;;;;;;5041254;28;20515;-62
2024/01/28 10:52:48;;;;;;;4.60;2.13;;;3.90;99.90;;;;;;5039464;28;20049;-62
2024/01/28 10:55:16;;;;;;;8.13;3.30;;;4.00;99.90;;;;;;5036369;28;20045;-62
2024/01/28 10:57:43;;;;;;;9.63;3.13;;;4.10;99.90;;;;;;5044457;28;20044;-62
2024/01/28 11:00:13;;;;;;;4.55;1.55;;;4.20;99.90;;;;;;5040232;28;20041;-61
2024/01/28 11:02:39;;;;;;;11.40;3.35;;;4.40;99.90;;;;;;5045038;28;20049;-62
2024/01/28 11:05:07;;;;;;;9.85;1.88;;;4.40;99.90;;;;;;5039851;28;20130;-62
2024/01/28 11:07:34;;;;;;;13.15;2.58;;;4.60;99.90;;;;;;5043157;28;20045;-62
2024/01/28 11:10:00;;;;;;;14.40;2.42;;;4.70;99.90;;;;;;5033951;28;20569;-61
2024/01/28 11:12:27;;;;;;;3.08;1.25;;;4.80;99.90;;;;;;5039180;28;20088;-62
2024/01/28 11:14:53;;;;;;;6.13;1.90;;;4.90;92.70;;;;;;5039295;28;20118;-62
2024/01/28 11:17:22;;;;;;;9.63;2.65;;;5.00;89.50;;;;;;5041563;28;20047;-61
2024/01/28 11:19:47;;;;;;;11.93;2.72;;;5.10;84.10;;;;;;5039514;28;20061;-61
2024/01/28 11:22:15;;;;;;;9.82;2.55;;;5.20;86.00;;;;;;5036939;28;20470;-61
2024/01/28 11:24:56;;;;;;;4.35;2.00;;;5.30;88.10;;;;;;5039818;28;20124;-61
2024/01/28 11:27:28;;;;;;;7.40;2.75;;;5.30;84.00;;;;;;5024193;28;20130;-61
2024/01/28 11:30:09;;;;;;;4.88;1.63;;;5.40;29.40;;;;;;5039291;28;20084;-61
2024/01/28 11:32:35;;;;;;;7.60;2.95;;;5.50;26.30;;;;;;5034440;28;20049;-61
2024/01/28 11:35:03;;;;;;;7.13;2.00;;;5.60;32.30;;;;;;5034847;28;20072;-61
2024/01/28 11:37:29;;;;;;;5.65;2.10;;;5.60;22.90;;;;;;5028594;28;20168;-61
2024/01/28 11:40:07;;;;;;;12.32;2.88;;;5.70;17.30;;;;;;5048877;28;20545;-61
2024/01/28 11:42:33;;;;;;;7.28;2.28;;;5.80;13.60;;;;;;5035706;28;20044;-61
2024/01/28 11:45:00;;;;;;;8.35;2.75;;;5.90;15.20;;;;;;5033322;28;20048;-61
2024/01/28 11:47:29;;;;;;;6.25;2.15;;;5.90;20.40;;;;;;5041482;28;20094;-61
2024/01/28 11:49:56;;;;;;;5.50;2.50;;;6.00;14.40;;;;;;5040608;28;20084;-61
2024/01/28 11:52:21;;;;;;;5.40;1.75;;;6.10;17.90;;;;;;5039422;28;20529;-61
2024/01/28 11:54:47;;;;;;;3.30;1.92;;;6.10;9.20;;;;;;5042843;28;20053;-61
2024/01/28 11:57:14;;;;;;;8.98;2.92;;;6.20;15.60;;;;;;5041917;28;20090;-61
2024/01/28 11:59:40;;;;;;;5.40;1.13;;;6.20;10.80;;;;;;5040807;28;20518;-61
2024/01/28 12:02:08;;;;;;;8.60;2.25;;;6.30;8.00;;;;;;5024946;28;20037;-61
2024/01/28 12:04:38;;;;;;;10.52;2.60;;;6.40;3.20;;;;;;5040194;28;20041;-61
2024/01/28 12:07:04;;;;;;;10.73;2.80;;;6.50;9.00;;;;;;5039804;28;20073;-61
2024/01/28 12:09:31;;;;;;;14.77;2.53;;;6.50;7.00;;;;;;5034064;28;20068;-61
2024/01/28 12:11:57;;;;;;;10.27;2.83;;;6.60;5.80;;;;;;5042505;28;20052;-61
2024/01/28 12:14:23;;;;;;;2.10;1.15;;;6.70;3.60;;;;;;5023908;28;20057;-61
2024/01/28 12:16:48;;;;;;;5.50;2.28;;;6.70;1.00;;;;;;5035886;28;20044;-61
2024/01/28 12:19:14;;;;;;;5.13;2.30;;;6.80;1.00;;;;;;5035193;28;20077;-61
2024/01/28 12:21:41;;;;;;;7.60;2.35;;;6.90;3.40;;;;;;5039719;28;20118;-60
2024/01/28 12:24:09;;;;;;;4.43;1.98;;;6.90;1.20;;;;;;5031384;28;20060;-61
2024/01/28 12:26:35;;;;;;;7.43;2.78;;;7.00;1.00;;;;;;5037172;28;20045;-60
2024/01/28 12:29:02;;;;;;;4.30;2.33;;;7.00;1.00;;;;;;5022742;28;20037;-61
2024/01/28 12:31:30;;;;;;;7.80;2.53;;;7.10;1.00;;;;;;5035525;28;20045;-61
2024/01/28 12:33:57;;;;;;;2.95;1.42;;;7.20;1.00;;;;;;5034968;28;20059;-61
2024/01/28 12:36:23;;;;;;;11.35;3.08;;;7.20;1.00;;;;;;5040410;28;20037;-60
2024/01/28 12:38:48;;;;;;;5.38;2.08;;;7.20;1.00;;;;;;5038613;28;20114;-60
2024/01/28 12:41:14;;;;;;;9.80;2.60;;;7.20;1.00;;;;;;5041832;28;20059;-61
2024/01/28 12:43:41;;;;;;;5.68;2.40;;;7.30;1.00;;;;;;5038750;28;20047;-61